sensor_id;sensor_type;location;lat;lon;timestamp;P1;durP1;ratioP1;P2;durP2;ratioP2
3771;SDS011;1901;48.172;12.824;2022-12-11T00:01:29;62.20;;;26.70;;
3771;SDS011;1901;48.172;12.824;2022-12-11T00:03:57;55.57;;;24.70;;
3771;SDS011;1901;48.172;12.824;2022-12-11T00:06:24;40.30;;;20.57;;
3771;SDS011;1901;48.172;12.824;2022-12-11T00:08:51;53.23;;;26.07;;
3771;SDS011;1901;48.172;12.824;2022-12-11T00:11:19;46.00;;;24.80;;
3771;SDS011;1901;48.172;12.824;2022-12-11T00:13:48;40.93;;;23.00;;
3771;SDS011;1901;48.172;12.824;2022-12-11T00:16:15;49.67;;;22.20;;
3771;SDS011;1901;48.172;12.824;2022-12-11T00:18:42;53.57;;;24.40;;
3771;SDS011;1901;48.172;12.824;2022-12-11T00:21:11;58.03;;;26.20;;
3771;SDS011;1901;48.172;12.824;2022-12-11T00:23:38;55.27;;;26.43;;
3771;SDS011;1901;48.172;12.824;2022-12-11T00:26:06;55.97;;;24.97;;
3771;SDS011;1901;48.172;12.824;2022-12-11T00:28:35;49.33;;;24.90;;
3771;SDS011;1901;48.172;12.824;2022-12-11T00:31:04;53.73;;;24.13;;
3771;SDS011;1901;48.172;12.824;2022-12-11T00:33:31;47.57;;;22.10;;
3771;SDS011;1901;48.172;12.824;2022-12-11T00:35:59;52.23;;;22.90;;
3771;SDS011;1901;48.172;12.824;2022-12-11T00:38:26;50.97;;;22.27;;
3771;SDS011;1901;48.172;12.824;2022-12-11T00:40:56;50.83;;;22.57;;
3771;SDS011;1901;48.172;12.824;2022-12-11T00:43:23;54.07;;;21.83;;
3771;SDS011;1901;48.172;12.824;2022-12-11T00:45:51;35.23;;;20.77;;
3771;SDS011;1901;48.172;12.824;2022-12-11T00:48:19;52.83;;;23.87;;
3771;SDS011;1901;48.172;12.824;2022-12-11T00:50:46;42.57;;;21.37;;
3771;SDS011;1901;48.172;12.824;2022-12-11T00:53:13;45.20;;;21.30;;
3771;SDS011;1901;48.172;12.824;2022-12-11T00:55:41;32.77;;;16.73;;
3771;SDS011;1901;48.172;12.824;2022-12-11T00:58:08;38.33;;;18.47;;
3771;SDS011;1901;48.172;12.824;2022-12-11T01:00:36;34.33;;;16.87;;
3771;SDS011;1901;48.172;12.824;2022-12-11T01:03:03;41.33;;;21.10;;
3771;SDS011;1901;48.172;12.824;2022-12-11T01:05:31;27.37;;;12.97;;
3771;SDS011;1901;48.172;12.824;2022-12-11T01:07:58;34.67;;;18.30;;
3771;SDS011;1901;48.172;12.824;2022-12-11T01:10:26;34.67;;;15.70;;
3771;SDS011;1901;48.172;12.824;2022-12-11T01:12:52;35.60;;;16.63;;
3771;SDS011;1901;48.172;12.824;2022-12-11T01:15:20;32.97;;;16.77;;
3771;SDS011;1901;48.172;12.824;2022-12-11T01:17:48;30.80;;;16.97;;
3771;SDS011;1901;48.172;12.824;2022-12-11T01:20:18;36.13;;;17.83;;
3771;SDS011;1901;48.172;12.824;2022-12-11T01:22:46;40.03;;;17.30;;
3771;SDS011;1901;48.172;12.824;2022-12-11T01:25:14;37.47;;;16.60;;
3771;SDS011;1901;48.172;12.824;2022-12-11T01:27:41;37.53;;;16.63;;
3771;SDS011;1901;48.172;12.824;2022-12-11T01:30:08;31.50;;;16.00;;
3771;SDS011;1901;48.172;12.824;2022-12-11T01:32:36;38.47;;;18.80;;
3771;SDS011;1901;48.172;12.824;2022-12-11T01:35:03;36.53;;;16.90;;
3771;SDS011;1901;48.172;12.824;2022-12-11T01:37:31;31.97;;;16.77;;
3771;SDS011;1901;48.172;12.824;2022-12-11T01:39:59;36.57;;;18.23;;
3771;SDS011;1901;48.172;12.824;2022-12-11T01:42:27;33.10;;;17.90;;
3771;SDS011;1901;48.172;12.824;2022-12-11T01:47:53;35.80;;;16.60;;
3771;SDS011;1901;48.172;12.824;2022-12-11T01:50:21;38.43;;;16.43;;
3771;SDS011;1901;48.172;12.824;2022-12-11T01:52:49;38.20;;;17.67;;
3771;SDS011;1901;48.172;12.824;2022-12-11T01:55:18;35.40;;;18.10;;
3771;SDS011;1901;48.172;12.824;2022-12-11T01:57:46;40.07;;;20.30;;
3771;SDS011;1901;48.172;12.824;2022-12-11T02:00:14;36.00;;;18.00;;
3771;SDS011;1901;48.172;12.824;2022-12-11T02:02:42;36.30;;;18.17;;
3771;SDS011;1901;48.172;12.824;2022-12-11T02:05:09;40.63;;;19.93;;
3771;SDS011;1901;48.172;12.824;2022-12-11T02:07:37;34.30;;;17.53;;
3771;SDS011;1901;48.172;12.824;2022-12-11T02:10:05;37.03;;;18.13;;
3771;SDS011;1901;48.172;12.824;2022-12-11T02:12:36;36.57;;;18.67;;
3771;SDS011;1901;48.172;12.824;2022-12-11T02:15:08;41.60;;;19.30;;
3771;SDS011;1901;48.172;12.824;2022-12-11T02:17:40;38.67;;;20.00;;
3771;SDS011;1901;48.172;12.824;2022-12-11T02:20:09;45.17;;;21.00;;
3771;SDS011;1901;48.172;12.824;2022-12-11T02:22:44;40.07;;;19.33;;
3771;SDS011;1901;48.172;12.824;2022-12-11T02:25:15;42.80;;;20.07;;
3771;SDS011;1901;48.172;12.824;2022-12-11T02:27:48;43.27;;;17.13;;
3771;SDS011;1901;48.172;12.824;2022-12-11T02:30:22;37.40;;;17.57;;
3771;SDS011;1901;48.172;12.824;2022-12-11T02:32:52;32.07;;;16.70;;
3771;SDS011;1901;48.172;12.824;2022-12-11T02:35:21;34.50;;;18.37;;
3771;SDS011;1901;48.172;12.824;2022-12-11T02:37:50;42.53;;;20.43;;
3771;SDS011;1901;48.172;12.824;2022-12-11T02:40:21;41.03;;;18.73;;
3771;SDS011;1901;48.172;12.824;2022-12-11T02:42:49;36.53;;;18.97;;
3771;SDS011;1901;48.172;12.824;2022-12-11T02:45:17;39.20;;;18.80;;
3771;SDS011;1901;48.172;12.824;2022-12-11T02:47:46;36.10;;;20.40;;
3771;SDS011;1901;48.172;12.824;2022-12-11T02:50:14;38.33;;;17.53;;
3771;SDS011;1901;48.172;12.824;2022-12-11T02:52:43;40.37;;;20.00;;
3771;SDS011;1901;48.172;12.824;2022-12-11T02:55:12;34.77;;;19.47;;
3771;SDS011;1901;48.172;12.824;2022-12-11T02:57:41;35.43;;;18.20;;
3771;SDS011;1901;48.172;12.824;2022-12-11T03:00:10;41.43;;;20.23;;
3771;SDS011;1901;48.172;12.824;2022-12-11T03:02:37;38.83;;;19.67;;
3771;SDS011;1901;48.172;12.824;2022-12-11T03:05:07;44.63;;;21.43;;
3771;SDS011;1901;48.172;12.824;2022-12-11T03:07:37;45.80;;;22.97;;
3771;SDS011;1901;48.172;12.824;2022-12-11T03:10:05;42.50;;;20.73;;
3771;SDS011;1901;48.172;12.824;2022-12-11T03:12:33;44.77;;;21.50;;
3771;SDS011;1901;48.172;12.824;2022-12-11T03:15:03;40.77;;;20.13;;
3771;SDS011;1901;48.172;12.824;2022-12-11T03:17:32;50.10;;;21.20;;
3771;SDS011;1901;48.172;12.824;2022-12-11T03:20:02;40.17;;;19.53;;
3771;SDS011;1901;48.172;12.824;2022-12-11T03:22:35;41.40;;;19.70;;
3771;SDS011;1901;48.172;12.824;2022-12-11T03:25:04;36.43;;;18.10;;
3771;SDS011;1901;48.172;12.824;2022-12-11T03:27:33;43.53;;;19.70;;
3771;SDS011;1901;48.172;12.824;2022-12-11T03:30:03;39.07;;;18.97;;
3771;SDS011;1901;48.172;12.824;2022-12-11T03:32:34;39.57;;;19.70;;
3771;SDS011;1901;48.172;12.824;2022-12-11T03:35:04;36.40;;;17.37;;
3771;SDS011;1901;48.172;12.824;2022-12-11T03:37:35;45.43;;;21.90;;
3771;SDS011;1901;48.172;12.824;2022-12-11T03:40:03;41.50;;;20.60;;
3771;SDS011;1901;48.172;12.824;2022-12-11T03:42:32;38.10;;;19.10;;
3771;SDS011;1901;48.172;12.824;2022-12-11T03:44:59;43.47;;;20.90;;
3771;SDS011;1901;48.172;12.824;2022-12-11T03:47:27;40.43;;;20.77;;
3771;SDS011;1901;48.172;12.824;2022-12-11T03:49:55;41.23;;;20.73;;
3771;SDS011;1901;48.172;12.824;2022-12-11T03:52:24;48.07;;;19.80;;
3771;SDS011;1901;48.172;12.824;2022-12-11T03:54:54;42.70;;;19.80;;
3771;SDS011;1901;48.172;12.824;2022-12-11T03:57:23;39.50;;;20.23;;
3771;SDS011;1901;48.172;12.824;2022-12-11T03:59:51;43.37;;;21.00;;
3771;SDS011;1901;48.172;12.824;2022-12-11T04:02:18;40.87;;;18.50;;
3771;SDS011;1901;48.172;12.824;2022-12-11T04:04:45;38.60;;;19.17;;
3771;SDS011;1901;48.172;12.824;2022-12-11T04:07:13;42.27;;;21.53;;
3771;SDS011;1901;48.172;12.824;2022-12-11T04:09:40;39.70;;;19.63;;
3771;SDS011;1901;48.172;12.824;2022-12-11T04:12:08;41.30;;;19.43;;
3771;SDS011;1901;48.172;12.824;2022-12-11T04:14:35;33.63;;;16.80;;
3771;SDS011;1901;48.172;12.824;2022-12-11T04:17:20;45.80;;;21.33;;
3771;SDS011;1901;48.172;12.824;2022-12-11T04:20:01;42.73;;;20.53;;
3771;SDS011;1901;48.172;12.824;2022-12-11T04:22:46;41.67;;;20.73;;
3771;SDS011;1901;48.172;12.824;2022-12-11T04:25:42;44.97;;;19.90;;
3771;SDS011;1901;48.172;12.824;2022-12-11T04:28:11;38.60;;;18.90;;
3771;SDS011;1901;48.172;12.824;2022-12-11T04:30:38;45.87;;;20.40;;
3771;SDS011;1901;48.172;12.824;2022-12-11T04:33:05;41.70;;;19.67;;
3771;SDS011;1901;48.172;12.824;2022-12-11T04:35:32;41.10;;;21.97;;
3771;SDS011;1901;48.172;12.824;2022-12-11T04:37:59;44.63;;;20.10;;
3771;SDS011;1901;48.172;12.824;2022-12-11T04:40:26;43.07;;;20.27;;
3771;SDS011;1901;48.172;12.824;2022-12-11T04:42:53;34.03;;;17.60;;
3771;SDS011;1901;48.172;12.824;2022-12-11T04:45:22;33.40;;;16.50;;
3771;SDS011;1901;48.172;12.824;2022-12-11T04:47:49;34.00;;;16.63;;
3771;SDS011;1901;48.172;12.824;2022-12-11T04:50:17;34.53;;;16.50;;
3771;SDS011;1901;48.172;12.824;2022-12-11T04:52:44;29.53;;;14.57;;
3771;SDS011;1901;48.172;12.824;2022-12-11T04:55:11;33.03;;;16.00;;
3771;SDS011;1901;48.172;12.824;2022-12-11T04:57:38;27.70;;;13.10;;
3771;SDS011;1901;48.172;12.824;2022-12-11T05:00:07;24.17;;;12.97;;
3771;SDS011;1901;48.172;12.824;2022-12-11T05:02:36;34.90;;;16.40;;
3771;SDS011;1901;48.172;12.824;2022-12-11T05:05:04;29.20;;;15.63;;
3771;SDS011;1901;48.172;12.824;2022-12-11T05:07:33;26.63;;;13.80;;
3771;SDS011;1901;48.172;12.824;2022-12-11T05:10:00;23.10;;;11.97;;
3771;SDS011;1901;48.172;12.824;2022-12-11T05:12:27;21.23;;;12.50;;
3771;SDS011;1901;48.172;12.824;2022-12-11T05:14:54;27.67;;;13.50;;
3771;SDS011;1901;48.172;12.824;2022-12-11T05:17:22;26.13;;;13.30;;
3771;SDS011;1901;48.172;12.824;2022-12-11T05:19:50;20.93;;;10.40;;
3771;SDS011;1901;48.172;12.824;2022-12-11T05:22:18;22.17;;;12.23;;
3771;SDS011;1901;48.172;12.824;2022-12-11T05:24:45;23.23;;;10.73;;
3771;SDS011;1901;48.172;12.824;2022-12-11T05:27:12;24.70;;;11.80;;
3771;SDS011;1901;48.172;12.824;2022-12-11T05:29:39;24.87;;;10.97;;
3771;SDS011;1901;48.172;12.824;2022-12-11T05:32:06;31.83;;;16.23;;
3771;SDS011;1901;48.172;12.824;2022-12-11T05:34:33;25.17;;;11.63;;
3771;SDS011;1901;48.172;12.824;2022-12-11T05:37:02;19.37;;;10.00;;
3771;SDS011;1901;48.172;12.824;2022-12-11T05:39:29;16.87;;;9.63;;
3771;SDS011;1901;48.172;12.824;2022-12-11T05:41:56;23.10;;;11.00;;
3771;SDS011;1901;48.172;12.824;2022-12-11T05:44:23;23.00;;;11.47;;
3771;SDS011;1901;48.172;12.824;2022-12-11T05:46:51;21.87;;;10.47;;
3771;SDS011;1901;48.172;12.824;2022-12-11T05:49:18;21.40;;;11.27;;
3771;SDS011;1901;48.172;12.824;2022-12-11T05:51:45;17.87;;;10.77;;
3771;SDS011;1901;48.172;12.824;2022-12-11T05:54:14;22.57;;;12.50;;
3771;SDS011;1901;48.172;12.824;2022-12-11T05:56:41;21.50;;;11.73;;
3771;SDS011;1901;48.172;12.824;2022-12-11T05:59:08;18.00;;;10.93;;
3771;SDS011;1901;48.172;12.824;2022-12-11T06:01:36;22.00;;;12.13;;
3771;SDS011;1901;48.172;12.824;2022-12-11T06:04:04;22.53;;;11.90;;
3771;SDS011;1901;48.172;12.824;2022-12-11T06:06:32;20.50;;;10.50;;
3771;SDS011;1901;48.172;12.824;2022-12-11T06:08:59;24.23;;;11.53;;
3771;SDS011;1901;48.172;12.824;2022-12-11T06:11:29;25.50;;;11.40;;
3771;SDS011;1901;48.172;12.824;2022-12-11T06:13:56;28.97;;;13.17;;
3771;SDS011;1901;48.172;12.824;2022-12-11T06:16:24;20.83;;;10.97;;
3771;SDS011;1901;48.172;12.824;2022-12-11T06:18:51;23.50;;;12.13;;
3771;SDS011;1901;48.172;12.824;2022-12-11T06:21:18;26.33;;;13.43;;
3771;SDS011;1901;48.172;12.824;2022-12-11T06:23:47;29.57;;;13.87;;
3771;SDS011;1901;48.172;12.824;2022-12-11T06:26:15;31.10;;;14.80;;
3771;SDS011;1901;48.172;12.824;2022-12-11T06:28:43;23.43;;;13.17;;
3771;SDS011;1901;48.172;12.824;2022-12-11T06:31:11;32.50;;;16.17;;
3771;SDS011;1901;48.172;12.824;2022-12-11T06:33:38;27.97;;;14.47;;
3771;SDS011;1901;48.172;12.824;2022-12-11T06:36:06;29.07;;;15.50;;
3771;SDS011;1901;48.172;12.824;2022-12-11T06:38:33;26.00;;;13.80;;
3771;SDS011;1901;48.172;12.824;2022-12-11T06:41:01;30.30;;;15.50;;
3771;SDS011;1901;48.172;12.824;2022-12-11T06:43:29;33.97;;;16.13;;
3771;SDS011;1901;48.172;12.824;2022-12-11T06:45:58;26.63;;;14.60;;
3771;SDS011;1901;48.172;12.824;2022-12-11T06:48:25;29.33;;;14.37;;
3771;SDS011;1901;48.172;12.824;2022-12-11T06:50:52;24.40;;;13.23;;
3771;SDS011;1901;48.172;12.824;2022-12-11T06:53:19;29.03;;;14.60;;
3771;SDS011;1901;48.172;12.824;2022-12-11T06:55:46;28.63;;;14.67;;
3771;SDS011;1901;48.172;12.824;2022-12-11T06:58:14;34.13;;;15.90;;
3771;SDS011;1901;48.172;12.824;2022-12-11T07:00:41;25.13;;;13.37;;
3771;SDS011;1901;48.172;12.824;2022-12-11T07:03:10;25.10;;;13.70;;
3771;SDS011;1901;48.172;12.824;2022-12-11T07:05:37;21.27;;;12.73;;
3771;SDS011;1901;48.172;12.824;2022-12-11T07:08:05;24.73;;;13.27;;
3771;SDS011;1901;48.172;12.824;2022-12-11T07:10:32;21.20;;;14.10;;
3771;SDS011;1901;48.172;12.824;2022-12-11T07:12:59;21.73;;;12.50;;
3771;SDS011;1901;48.172;12.824;2022-12-11T07:15:26;22.27;;;14.10;;
3771;SDS011;1901;48.172;12.824;2022-12-11T07:17:53;24.43;;;14.03;;
3771;SDS011;1901;48.172;12.824;2022-12-11T07:20:22;23.10;;;14.20;;
3771;SDS011;1901;48.172;12.824;2022-12-11T07:22:49;25.57;;;14.93;;
3771;SDS011;1901;48.172;12.824;2022-12-11T07:25:16;22.87;;;12.00;;
3771;SDS011;1901;48.172;12.824;2022-12-11T07:27:43;27.50;;;14.00;;
3771;SDS011;1901;48.172;12.824;2022-12-11T07:30:11;25.47;;;13.97;;
3771;SDS011;1901;48.172;12.824;2022-12-11T07:32:38;26.67;;;13.30;;
3771;SDS011;1901;48.172;12.824;2022-12-11T07:35:05;23.97;;;13.10;;
3771;SDS011;1901;48.172;12.824;2022-12-11T07:37:34;29.55;;;17.67;;
3771;SDS011;1901;48.172;12.824;2022-12-11T07:40:02;25.53;;;14.27;;
3771;SDS011;1901;48.172;12.824;2022-12-11T07:42:29;28.83;;;13.90;;
3771;SDS011;1901;48.172;12.824;2022-12-11T07:44:56;27.93;;;14.27;;
3771;SDS011;1901;48.172;12.824;2022-12-11T07:47:23;23.73;;;13.73;;
3771;SDS011;1901;48.172;12.824;2022-12-11T07:49:51;27.10;;;14.10;;
3771;SDS011;1901;48.172;12.824;2022-12-11T07:52:18;26.50;;;15.60;;
3771;SDS011;1901;48.172;12.824;2022-12-11T07:54:46;20.47;;;12.47;;
3771;SDS011;1901;48.172;12.824;2022-12-11T07:57:13;25.27;;;13.77;;
3771;SDS011;1901;48.172;12.824;2022-12-11T07:59:40;22.13;;;12.60;;
3771;SDS011;1901;48.172;12.824;2022-12-11T08:02:08;25.03;;;13.43;;
3771;SDS011;1901;48.172;12.824;2022-12-11T08:04:35;24.63;;;14.20;;
3771;SDS011;1901;48.172;12.824;2022-12-11T08:07:02;26.87;;;13.97;;
3771;SDS011;1901;48.172;12.824;2022-12-11T08:09:30;23.43;;;12.97;;
3771;SDS011;1901;48.172;12.824;2022-12-11T08:11:58;21.77;;;11.97;;
3771;SDS011;1901;48.172;12.824;2022-12-11T08:14:25;25.63;;;13.97;;
3771;SDS011;1901;48.172;12.824;2022-12-11T08:16:52;24.50;;;13.30;;
3771;SDS011;1901;48.172;12.824;2022-12-11T08:19:21;24.97;;;13.57;;
3771;SDS011;1901;48.172;12.824;2022-12-11T08:21:48;28.47;;;14.57;;
3771;SDS011;1901;48.172;12.824;2022-12-11T08:24:15;22.13;;;11.90;;
3771;SDS011;1901;48.172;12.824;2022-12-11T08:26:45;27.53;;;13.50;;
3771;SDS011;1901;48.172;12.824;2022-12-11T08:29:13;25.50;;;12.90;;
3771;SDS011;1901;48.172;12.824;2022-12-11T08:31:40;27.43;;;13.33;;
3771;SDS011;1901;48.172;12.824;2022-12-11T08:34:08;21.83;;;12.30;;
3771;SDS011;1901;48.172;12.824;2022-12-11T08:36:37;22.13;;;11.57;;
3771;SDS011;1901;48.172;12.824;2022-12-11T08:39:04;23.20;;;12.90;;
3771;SDS011;1901;48.172;12.824;2022-12-11T08:41:32;23.13;;;14.43;;
3771;SDS011;1901;48.172;12.824;2022-12-11T08:43:59;23.83;;;13.40;;
3771;SDS011;1901;48.172;12.824;2022-12-11T08:46:28;25.10;;;13.40;;
3771;SDS011;1901;48.172;12.824;2022-12-11T08:48:55;24.70;;;12.67;;
3771;SDS011;1901;48.172;12.824;2022-12-11T08:51:23;21.43;;;12.40;;
3771;SDS011;1901;48.172;12.824;2022-12-11T08:53:53;22.53;;;12.17;;
3771;SDS011;1901;48.172;12.824;2022-12-11T08:56:20;26.60;;;12.57;;
3771;SDS011;1901;48.172;12.824;2022-12-11T08:58:48;26.90;;;13.03;;
3771;SDS011;1901;48.172;12.824;2022-12-11T09:01:16;25.90;;;13.70;;
3771;SDS011;1901;48.172;12.824;2022-12-11T09:03:46;22.90;;;11.53;;
3771;SDS011;1901;48.172;12.824;2022-12-11T09:06:14;22.23;;;12.03;;
3771;SDS011;1901;48.172;12.824;2022-12-11T09:08:42;22.60;;;11.60;;
3771;SDS011;1901;48.172;12.824;2022-12-11T09:11:10;20.57;;;12.03;;
3771;SDS011;1901;48.172;12.824;2022-12-11T09:13:38;26.10;;;12.37;;
3771;SDS011;1901;48.172;12.824;2022-12-11T09:16:06;23.83;;;12.73;;
3771;SDS011;1901;48.172;12.824;2022-12-11T09:18:34;21.80;;;12.10;;
3771;SDS011;1901;48.172;12.824;2022-12-11T09:21:04;23.30;;;12.47;;
3771;SDS011;1901;48.172;12.824;2022-12-11T09:23:31;19.13;;;11.40;;
3771;SDS011;1901;48.172;12.824;2022-12-11T09:25:59;21.83;;;11.40;;
3771;SDS011;1901;48.172;12.824;2022-12-11T09:28:26;21.50;;;11.47;;
3771;SDS011;1901;48.172;12.824;2022-12-11T09:30:53;17.10;;;11.17;;
3771;SDS011;1901;48.172;12.824;2022-12-11T09:33:20;19.47;;;11.23;;
3771;SDS011;1901;48.172;12.824;2022-12-11T09:35:55;28.67;;;15.37;;
3771;SDS011;1901;48.172;12.824;2022-12-11T09:38:24;22.57;;;13.30;;
3771;SDS011;1901;48.172;12.824;2022-12-11T09:40:51;22.67;;;12.13;;
3771;SDS011;1901;48.172;12.824;2022-12-11T09:43:21;24.90;;;12.73;;
3771;SDS011;1901;48.172;12.824;2022-12-11T09:45:54;31.73;;;15.57;;
3771;SDS011;1901;48.172;12.824;2022-12-11T09:48:21;30.63;;;15.00;;
3771;SDS011;1901;48.172;12.824;2022-12-11T09:50:50;26.63;;;13.93;;
3771;SDS011;1901;48.172;12.824;2022-12-11T09:53:19;26.50;;;14.80;;
3771;SDS011;1901;48.172;12.824;2022-12-11T09:55:50;23.40;;;13.07;;
3771;SDS011;1901;48.172;12.824;2022-12-11T09:58:21;23.10;;;13.60;;
3771;SDS011;1901;48.172;12.824;2022-12-11T10:00:51;25.27;;;13.43;;
3771;SDS011;1901;48.172;12.824;2022-12-11T10:03:33;25.73;;;13.60;;
3771;SDS011;1901;48.172;12.824;2022-12-11T10:06:06;18.73;;;10.47;;
3771;SDS011;1901;48.172;12.824;2022-12-11T10:08:40;21.00;;;11.37;;
3771;SDS011;1901;48.172;12.824;2022-12-11T10:11:14;25.63;;;15.57;;
3771;SDS011;1901;48.172;12.824;2022-12-11T10:13:47;29.97;;;14.40;;
3771;SDS011;1901;48.172;12.824;2022-12-11T10:16:18;22.87;;;12.97;;
3771;SDS011;1901;48.172;12.824;2022-12-11T10:18:46;26.87;;;13.07;;
3771;SDS011;1901;48.172;12.824;2022-12-11T10:21:14;29.10;;;14.67;;
3771;SDS011;1901;48.172;12.824;2022-12-11T10:23:43;21.43;;;12.77;;
3771;SDS011;1901;48.172;12.824;2022-12-11T10:26:14;22.60;;;13.87;;
3771;SDS011;1901;48.172;12.824;2022-12-11T10:28:42;22.47;;;13.10;;
3771;SDS011;1901;48.172;12.824;2022-12-11T10:31:11;26.63;;;13.97;;
3771;SDS011;1901;48.172;12.824;2022-12-11T10:33:45;22.27;;;12.53;;
3771;SDS011;1901;48.172;12.824;2022-12-11T10:36:16;29.17;;;16.00;;
3771;SDS011;1901;48.172;12.824;2022-12-11T10:38:44;24.00;;;12.90;;
3771;SDS011;1901;48.172;12.824;2022-12-11T10:41:14;20.70;;;11.37;;
3771;SDS011;1901;48.172;12.824;2022-12-11T10:43:44;27.30;;;14.20;;
3771;SDS011;1901;48.172;12.824;2022-12-11T10:46:13;18.87;;;11.07;;
3771;SDS011;1901;48.172;12.824;2022-12-11T10:48:44;25.77;;;12.60;;
3771;SDS011;1901;48.172;12.824;2022-12-11T10:51:11;25.83;;;13.67;;
3771;SDS011;1901;48.172;12.824;2022-12-11T10:53:38;21.57;;;13.67;;
3771;SDS011;1901;48.172;12.824;2022-12-11T10:56:07;23.13;;;13.30;;
3771;SDS011;1901;48.172;12.824;2022-12-11T10:58:36;24.97;;;14.90;;
3771;SDS011;1901;48.172;12.824;2022-12-11T11:01:07;27.97;;;12.77;;
3771;SDS011;1901;48.172;12.824;2022-12-11T11:03:35;26.00;;;12.43;;
3771;SDS011;1901;48.172;12.824;2022-12-11T11:06:04;24.30;;;14.00;;
3771;SDS011;1901;48.172;12.824;2022-12-11T11:08:37;24.70;;;13.70;;
3771;SDS011;1901;48.172;12.824;2022-12-11T11:11:05;30.40;;;14.23;;
3771;SDS011;1901;48.172;12.824;2022-12-11T11:13:33;24.23;;;12.00;;
3771;SDS011;1901;48.172;12.824;2022-12-11T11:16:03;24.97;;;14.00;;
3771;SDS011;1901;48.172;12.824;2022-12-11T11:18:31;26.97;;;14.40;;
3771;SDS011;1901;48.172;12.824;2022-12-11T11:20:58;23.57;;;13.70;;
3771;SDS011;1901;48.172;12.824;2022-12-11T11:23:25;27.33;;;14.00;;
3771;SDS011;1901;48.172;12.824;2022-12-11T11:25:54;31.70;;;14.33;;
3771;SDS011;1901;48.172;12.824;2022-12-11T11:28:22;23.60;;;13.50;;
3771;SDS011;1901;48.172;12.824;2022-12-11T11:30:55;20.03;;;11.83;;
3771;SDS011;1901;48.172;12.824;2022-12-11T11:33:24;19.07;;;11.67;;
3771;SDS011;1901;48.172;12.824;2022-12-11T11:35:52;19.13;;;11.80;;
3771;SDS011;1901;48.172;12.824;2022-12-11T11:38:20;20.90;;;11.10;;
3771;SDS011;1901;48.172;12.824;2022-12-11T11:40:50;19.03;;;11.43;;
3771;SDS011;1901;48.172;12.824;2022-12-11T11:43:23;24.73;;;13.50;;
3771;SDS011;1901;48.172;12.824;2022-12-11T11:45:54;20.57;;;11.40;;
3771;SDS011;1901;48.172;12.824;2022-12-11T11:48:27;20.63;;;10.10;;
3771;SDS011;1901;48.172;12.824;2022-12-11T11:50:58;16.53;;;10.73;;
3771;SDS011;1901;48.172;12.824;2022-12-11T11:53:29;18.50;;;11.33;;
3771;SDS011;1901;48.172;12.824;2022-12-11T11:55:59;19.53;;;10.00;;
3771;SDS011;1901;48.172;12.824;2022-12-11T11:58:30;27.17;;;15.40;;
3771;SDS011;1901;48.172;12.824;2022-12-11T12:01:02;21.20;;;11.80;;
3771;SDS011;1901;48.172;12.824;2022-12-11T12:03:31;19.73;;;13.07;;
3771;SDS011;1901;48.172;12.824;2022-12-11T12:06:00;18.70;;;11.50;;
3771;SDS011;1901;48.172;12.824;2022-12-11T12:08:35;42.03;;;21.70;;
3771;SDS011;1901;48.172;12.824;2022-12-11T12:11:04;28.63;;;16.07;;
3771;SDS011;1901;48.172;12.824;2022-12-11T12:13:35;23.77;;;14.50;;
3771;SDS011;1901;48.172;12.824;2022-12-11T12:16:07;22.50;;;13.33;;
3771;SDS011;1901;48.172;12.824;2022-12-11T12:18:40;20.27;;;11.73;;
3771;SDS011;1901;48.172;12.824;2022-12-11T12:21:12;22.73;;;13.87;;
3771;SDS011;1901;48.172;12.824;2022-12-11T12:23:46;34.53;;;17.87;;
3771;SDS011;1901;48.172;12.824;2022-12-11T12:26:19;89.00;;;35.97;;
3771;SDS011;1901;48.172;12.824;2022-12-11T12:28:51;29.10;;;15.10;;
3771;SDS011;1901;48.172;12.824;2022-12-11T12:31:24;26.37;;;13.43;;
3771;SDS011;1901;48.172;12.824;2022-12-11T12:33:58;28.77;;;14.37;;
3771;SDS011;1901;48.172;12.824;2022-12-11T12:36:30;25.63;;;11.97;;
3771;SDS011;1901;48.172;12.824;2022-12-11T12:39:01;28.83;;;12.63;;
3771;SDS011;1901;48.172;12.824;2022-12-11T12:41:32;22.10;;;12.57;;
3771;SDS011;1901;48.172;12.824;2022-12-11T12:44:04;19.93;;;12.50;;
3771;SDS011;1901;48.172;12.824;2022-12-11T12:46:39;23.77;;;12.83;;
3771;SDS011;1901;48.172;12.824;2022-12-11T12:49:11;25.77;;;14.30;;
3771;SDS011;1901;48.172;12.824;2022-12-11T12:51:41;22.17;;;12.63;;
3771;SDS011;1901;48.172;12.824;2022-12-11T12:54:08;19.47;;;11.93;;
3771;SDS011;1901;48.172;12.824;2022-12-11T12:56:38;21.17;;;11.40;;
3771;SDS011;1901;48.172;12.824;2022-12-11T12:59:16;18.40;;;10.53;;
3771;SDS011;1901;48.172;12.824;2022-12-11T13:01:45;20.20;;;12.20;;
3771;SDS011;1901;48.172;12.824;2022-12-11T13:04:25;20.53;;;11.53;;
3771;SDS011;1901;48.172;12.824;2022-12-11T13:06:53;24.97;;;13.97;;
3771;SDS011;1901;48.172;12.824;2022-12-11T13:09:22;19.77;;;11.83;;
3771;SDS011;1901;48.172;12.824;2022-12-11T13:11:50;23.40;;;12.30;;
3771;SDS011;1901;48.172;12.824;2022-12-11T13:14:22;24.07;;;11.63;;
3771;SDS011;1901;48.172;12.824;2022-12-11T13:16:52;19.77;;;12.00;;
3771;SDS011;1901;48.172;12.824;2022-12-11T13:19:32;19.00;;;11.30;;
3771;SDS011;1901;48.172;12.824;2022-12-11T13:22:01;21.17;;;12.13;;
3771;SDS011;1901;48.172;12.824;2022-12-11T13:24:31;25.87;;;13.70;;
3771;SDS011;1901;48.172;12.824;2022-12-11T13:27:07;19.47;;;10.83;;
3771;SDS011;1901;48.172;12.824;2022-12-11T13:29:35;16.53;;;10.53;;
3771;SDS011;1901;48.172;12.824;2022-12-11T13:32:10;17.70;;;11.40;;
3771;SDS011;1901;48.172;12.824;2022-12-11T13:34:50;23.87;;;11.90;;
3771;SDS011;1901;48.172;12.824;2022-12-11T13:37:20;18.93;;;11.17;;
3771;SDS011;1901;48.172;12.824;2022-12-11T13:39:50;16.20;;;9.97;;
3771;SDS011;1901;48.172;12.824;2022-12-11T13:42:19;17.00;;;9.67;;
3771;SDS011;1901;48.172;12.824;2022-12-11T13:44:48;19.80;;;10.60;;
3771;SDS011;1901;48.172;12.824;2022-12-11T13:47:16;23.00;;;11.80;;
3771;SDS011;1901;48.172;12.824;2022-12-11T13:49:44;23.10;;;11.87;;
3771;SDS011;1901;48.172;12.824;2022-12-11T13:52:15;17.00;;;10.80;;
3771;SDS011;1901;48.172;12.824;2022-12-11T13:54:46;22.80;;;11.93;;
3771;SDS011;1901;48.172;12.824;2022-12-11T13:57:14;15.93;;;11.00;;
3771;SDS011;1901;48.172;12.824;2022-12-11T13:59:45;25.80;;;15.17;;
3771;SDS011;1901;48.172;12.824;2022-12-11T14:02:13;20.70;;;11.93;;
3771;SDS011;1901;48.172;12.824;2022-12-11T14:04:41;21.53;;;14.20;;
3771;SDS011;1901;48.172;12.824;2022-12-11T14:07:08;26.73;;;12.70;;
3771;SDS011;1901;48.172;12.824;2022-12-11T14:09:38;28.40;;;13.77;;
3771;SDS011;1901;48.172;12.824;2022-12-11T14:12:12;18.37;;;9.40;;
3771;SDS011;1901;48.172;12.824;2022-12-11T14:14:42;25.10;;;13.00;;
3771;SDS011;1901;48.172;12.824;2022-12-11T14:17:11;19.13;;;11.23;;
3771;SDS011;1901;48.172;12.824;2022-12-11T14:19:40;18.53;;;12.40;;
3771;SDS011;1901;48.172;12.824;2022-12-11T14:22:15;16.43;;;10.87;;
3771;SDS011;1901;48.172;12.824;2022-12-11T14:24:48;20.07;;;10.03;;
3771;SDS011;1901;48.172;12.824;2022-12-11T14:27:16;23.90;;;14.33;;
3771;SDS011;1901;48.172;12.824;2022-12-11T14:29:43;23.93;;;12.53;;
3771;SDS011;1901;48.172;12.824;2022-12-11T14:32:14;25.87;;;13.37;;
3771;SDS011;1901;48.172;12.824;2022-12-11T14:34:43;25.70;;;14.50;;
3771;SDS011;1901;48.172;12.824;2022-12-11T14:37:11;36.93;;;15.23;;
3771;SDS011;1901;48.172;12.824;2022-12-11T14:39:41;30.90;;;16.23;;
3771;SDS011;1901;48.172;12.824;2022-12-11T14:42:12;27.50;;;13.90;;
3771;SDS011;1901;48.172;12.824;2022-12-11T14:44:43;19.07;;;10.40;;
3771;SDS011;1901;48.172;12.824;2022-12-11T14:47:12;29.50;;;13.23;;
3771;SDS011;1901;48.172;12.824;2022-12-11T14:49:41;20.00;;;12.50;;